Time;durP1;ratioP1;P1;durP2;ratioP2;P2;SDS_P1;SDS_P2;PMS_P1;PMS_P2;Temp;Humidity;BMP_temperature;BMP_pressure;BME280_temperature;BME280_humidity;BME280_pressure;Samples;Min_cycle;Max_cycle;Signal;HPM_P1;HPM_P2
2021/01/28 00:01:53;;;;;;;59.93;36.47;;;;;;;;;;672186;207;918594;-69
2021/01/28 00:04:19;;;;;;;65.30;34.60;;;;;;;;;;669585;207;918924;-69
2021/01/28 00:06:45;;;;;;;63.13;35.37;;;;;;;;;;676734;207;917839;-69
2021/01/28 00:09:11;;;;;;;67.80;35.80;;;;;;;;;;670680;207;918460;-68
2021/01/28 00:11:36;;;;;;;59.17;34.57;;;;;;;;;;674025;207;919281;-69
2021/01/28 00:14:02;;;;;;;59.97;34.80;;;;;;;;;;676293;207;920517;-69
2021/01/28 00:16:28;;;;;;;60.40;34.83;;;;;;;;;;673883;207;918101;-69
2021/01/28 00:18:54;;;;;;;60.93;34.13;;;;;;;;;;667634;207;1698176;-69
2021/01/28 00:21:20;;;;;;;60.70;33.67;;;;;;;;;;673204;207;944334;-68
2021/01/28 00:23:46;;;;;;;62.78;31.90;;;;;;;;;;674709;207;919971;-69
2021/01/28 00:26:12;;;;;;;60.47;33.27;;;;;;;;;;671219;207;919586;-69
2021/01/28 00:28:38;;;;;;;61.40;31.00;;;;;;;;;;673824;207;919145;-68
2021/01/28 00:31:04;;;;;;;59.83;31.62;;;;;;;;;;678267;205;919973;-68
2021/01/28 00:33:29;;;;;;;69.07;32.60;;;;;;;;;;676172;207;919796;-67
2021/01/28 00:35:55;;;;;;;59.15;31.10;;;;;;;;;;672007;207;1016750;-68
2021/01/28 00:38:24;;;;;;;58.70;30.83;;;;;;;;;;679401;207;918769;-68
2021/01/28 00:40:50;;;;;;;55.58;33.83;;;;;;;;;;678859;207;919432;-68
2021/01/28 00:43:16;;;;;;;49.70;30.50;;;;;;;;;;674144;207;918760;-68
2021/01/28 00:45:41;;;;;;;61.10;32.23;;;;;;;;;;670562;207;968632;-68
2021/01/28 00:48:08;;;;;;;64.10;32.50;;;;;;;;;;678232;207;919347;-69
2021/01/28 00:50:33;;;;;;;61.13;29.60;;;;;;;;;;671431;207;941358;-66
2021/01/28 00:52:59;;;;;;;55.97;30.75;;;;;;;;;;671975;207;919040;-68
2021/01/28 00:55:25;;;;;;;65.23;34.77;;;;;;;;;;675832;207;941421;-68
2021/01/28 00:57:51;;;;;;;65.27;36.20;;;;;;;;;;674038;207;919242;-67
2021/01/28 01:00:20;;;;;;;58.78;31.75;;;;;;;;;;671333;207;927407;-67
2021/01/28 01:02:46;;;;;;;58.00;34.53;;;;;;;;;;673285;207;919232;-68
2021/01/28 01:05:12;;;;;;;62.67;32.87;;;;;;;;;;679320;207;919972;-68
2021/01/28 01:07:38;;;;;;;60.73;34.00;;;;;;;;;;670289;207;952515;-69
2021/01/28 01:10:05;;;;;;;61.60;37.07;;;;;;;;;;673173;207;918868;-68
2021/01/28 01:12:31;;;;;;;58.97;31.73;;;;;;;;;;676303;207;918449;-68
2021/01/28 01:14:56;;;;;;;72.10;34.88;;;;;;;;;;673183;207;919346;-68
2021/01/28 01:17:22;;;;;;;68.72;34.58;;;;;;;;;;671270;207;918947;-68
2021/01/28 01:19:48;;;;;;;49.00;30.90;;;;;;;;;;678715;207;918479;-68
2021/01/28 01:22:14;;;;;;;63.40;32.63;;;;;;;;;;672646;207;918671;-68
2021/01/28 01:24:40;;;;;;;60.73;31.97;;;;;;;;;;674234;207;918698;-68
2021/01/28 01:27:07;;;;;;;64.82;36.88;;;;;;;;;;676185;207;918219;-67
2021/01/28 01:29:32;;;;;;;57.80;31.93;;;;;;;;;;678178;207;919413;-68
2021/01/28 01:31:58;;;;;;;60.17;34.22;;;;;;;;;;670823;207;919001;-68
2021/01/28 01:34:24;;;;;;;49.77;31.07;;;;;;;;;;673231;207;918748;-68
2021/01/28 01:36:50;;;;;;;51.40;30.20;;;;;;;;;;675967;207;919197;-68
2021/01/28 01:39:16;;;;;;;51.40;29.43;;;;;;;;;;672610;207;919195;-67
2021/01/28 01:41:42;;;;;;;58.17;31.60;;;;;;;;;;673122;206;919467;-68
2021/01/28 01:44:07;;;;;;;50.63;27.60;;;;;;;;;;679056;206;919408;-67
2021/01/28 01:46:33;;;;;;;52.23;28.40;;;;;;;;;;675614;207;919559;-68
2021/01/28 01:48:59;;;;;;;55.08;30.00;;;;;;;;;;671675;207;957264;-67
2021/01/28 01:51:25;;;;;;;63.43;35.67;;;;;;;;;;679179;207;917763;-68
2021/01/28 01:53:52;;;;;;;59.97;35.70;;;;;;;;;;672615;207;936926;-67
2021/01/28 01:56:18;;;;;;;62.03;34.33;;;;;;;;;;675154;207;919483;-67
2021/01/28 01:58:44;;;;;;;61.87;36.17;;;;;;;;;;670748;207;919916;-68
2021/01/28 02:01:10;;;;;;;68.03;36.08;;;;;;;;;;677948;207;919515;-67
2021/01/28 02:03:36;;;;;;;62.30;35.60;;;;;;;;;;671014;207;919502;-67
2021/01/28 02:06:03;;;;;;;66.00;35.50;;;;;;;;;;670846;207;919167;-66
2021/01/28 02:08:29;;;;;;;66.30;34.70;;;;;;;;;;676132;207;918501;-67
2021/01/28 02:10:55;;;;;;;66.37;35.28;;;;;;;;;;673423;207;920638;-67
2021/01/28 02:13:21;;;;;;;71.93;36.67;;;;;;;;;;669058;207;1431927;-67
2021/01/28 02:15:47;;;;;;;64.50;36.87;;;;;;;;;;678505;207;916353;-67
2021/01/28 02:18:14;;;;;;;70.30;35.57;;;;;;;;;;673672;207;914835;-66
2021/01/28 02:20:41;;;;;;;62.63;36.63;;;;;;;;;;672684;207;926558;-66
2021/01/28 02:23:08;;;;;;;72.13;35.13;;;;;;;;;;673029;207;918844;-67
2021/01/28 02:25:34;;;;;;;51.93;32.03;;;;;;;;;;675408;207;888146;-67
2021/01/28 02:28:08;;;;;;;58.53;33.23;;;;;;;;;;672376;207;919644;-67
2021/01/28 02:30:33;;;;;;;56.15;33.17;;;;;;;;;;672644;207;1020395;-69
2021/01/28 02:32:59;;;;;;;63.60;31.63;;;;;;;;;;673233;207;920006;-67
2021/01/28 02:35:25;;;;;;;55.83;34.17;;;;;;;;;;668434;208;920731;-67
2021/01/28 02:37:51;;;;;;;64.40;33.90;;;;;;;;;;672209;207;920694;-67
2021/01/28 02:40:17;;;;;;;58.57;33.20;;;;;;;;;;671123;207;1014050;-67
2021/01/28 02:42:43;;;;;;;59.90;33.77;;;;;;;;;;676615;207;915007;-67
2021/01/28 02:45:09;;;;;;;62.20;32.70;;;;;;;;;;669751;207;1021665;-67
2021/01/28 02:47:35;;;;;;;60.93;34.53;;;;;;;;;;672834;207;918386;-66
2021/01/28 02:50:01;;;;;;;61.23;34.30;;;;;;;;;;675104;207;950912;-67
2021/01/28 02:52:27;;;;;;;65.83;35.60;;;;;;;;;;672427;207;919253;-67
2021/01/28 02:54:52;;;;;;;61.20;34.15;;;;;;;;;;670773;205;1317812;-66
2021/01/28 02:57:19;;;;;;;64.40;36.35;;;;;;;;;;676140;207;919271;-66
2021/01/28 02:59:45;;;;;;;74.07;35.43;;;;;;;;;;679276;207;919007;-67
2021/01/28 03:02:11;;;;;;;63.43;34.90;;;;;;;;;;671654;207;919422;-67
2021/01/28 03:04:37;;;;;;;68.67;35.40;;;;;;;;;;674053;207;919425;-66
2021/01/28 03:07:04;;;;;;;75.55;36.75;;;;;;;;;;677034;207;915814;-67
2021/01/28 03:09:30;;;;;;;59.47;32.90;;;;;;;;;;672954;207;916762;-67
2021/01/28 03:11:56;;;;;;;61.53;31.93;;;;;;;;;;672214;204;918870;-68
2021/01/28 03:14:21;;;;;;;70.33;33.70;;;;;;;;;;674002;207;915917;-67
2021/01/28 03:16:47;;;;;;;64.13;33.67;;;;;;;;;;672808;207;918348;-66
2021/01/28 03:19:13;;;;;;;66.50;35.07;;;;;;;;;;674648;207;916100;-67
2021/01/28 03:21:39;;;;;;;73.30;36.13;;;;;;;;;;676763;207;920890;-67
2021/01/28 03:24:05;;;;;;;73.20;36.73;;;;;;;;;;673306;207;920877;-67
2021/01/28 03:26:31;;;;;;;70.27;37.00;;;;;;;;;;668827;207;919232;-67
2021/01/28 03:28:57;;;;;;;63.42;34.45;;;;;;;;;;671362;207;921696;-67
2021/01/28 03:31:23;;;;;;;69.23;35.37;;;;;;;;;;675229;207;919963;-67
2021/01/28 03:33:49;;;;;;;70.23;35.50;;;;;;;;;;672921;207;920589;-66
2021/01/28 03:36:16;;;;;;;69.40;35.90;;;;;;;;;;669201;207;919974;-67
2021/01/28 03:38:42;;;;;;;75.43;36.57;;;;;;;;;;677313;207;919803;-66
2021/01/28 03:41:08;;;;;;;75.80;40.83;;;;;;;;;;673499;207;1021294;-66
2021/01/28 03:43:34;;;;;;;82.13;42.70;;;;;;;;;;671232;207;1254446;-67
2021/01/28 03:46:00;;;;;;;79.00;37.50;;;;;;;;;;678062;207;915422;-67
2021/01/28 03:48:26;;;;;;;67.87;37.63;;;;;;;;;;670312;207;916040;-67
2021/01/28 03:50:52;;;;;;;66.33;38.47;;;;;;;;;;673582;207;916718;-67
2021/01/28 03:53:17;;;;;;;71.10;38.95;;;;;;;;;;670667;207;919323;-66
2021/01/28 03:55:43;;;;;;;81.23;41.47;;;;;;;;;;677436;207;919646;-65
2021/01/28 03:58:09;;;;;;;76.47;38.70;;;;;;;;;;668285;207;1017364;-67
2021/01/28 04:00:35;;;;;;;70.33;38.50;;;;;;;;;;672737;207;919208;-66
2021/01/28 04:03:01;;;;;;;73.57;39.83;;;;;;;;;;675636;207;917677;-66
2021/01/28 04:05:27;;;;;;;65.23;38.43;;;;;;;;;;668762;206;920423;-67
2021/01/28 04:07:53;;;;;;;80.17;38.03;;;;;;;;;;673765;207;926460;-67
2021/01/28 04:10:18;;;;;;;64.17;36.43;;;;;;;;;;678562;207;1021155;-67
2021/01/28 04:12:45;;;;;;;76.20;41.27;;;;;;;;;;670666;207;919426;-66
2021/01/28 04:15:11;;;;;;;81.43;39.13;;;;;;;;;;673578;207;918465;-66
2021/01/28 04:17:37;;;;;;;126.33;55.87;;;;;;;;;;673708;207;920319;-66
2021/01/28 04:20:03;;;;;;;104.03;53.65;;;;;;;;;;676364;208;918867;-67
2021/01/28 04:22:29;;;;;;;70.37;37.33;;;;;;;;;;674388;207;918554;-67
2021/01/28 04:24:55;;;;;;;62.70;37.37;;;;;;;;;;661287;207;2767651;-67
2021/01/28 04:27:21;;;;;;;56.67;32.10;;;;;;;;;;677614;207;919357;-66
2021/01/28 04:29:47;;;;;;;67.27;32.67;;;;;;;;;;671988;207;918920;-66
2021/01/28 04:32:12;;;;;;;52.17;30.93;;;;;;;;;;673903;207;918991;-66
2021/01/28 04:34:38;;;;;;;65.00;33.07;;;;;;;;;;676052;204;919283;-67
2021/01/28 04:37:04;;;;;;;61.33;35.90;;;;;;;;;;672094;207;920422;-65
2021/01/28 04:39:30;;;;;;;64.70;32.57;;;;;;;;;;670718;207;917579;-65
2021/01/28 04:41:56;;;;;;;59.17;33.60;;;;;;;;;;677766;207;919328;-66
2021/01/28 04:44:22;;;;;;;71.67;36.87;;;;;;;;;;671437;207;918626;-66
2021/01/28 04:46:48;;;;;;;69.93;39.58;;;;;;;;;;672988;207;918612;-67
2021/01/28 04:49:14;;;;;;;73.00;39.53;;;;;;;;;;670920;207;919308;-66
2021/01/28 04:51:40;;;;;;;77.70;39.27;;;;;;;;;;678670;207;918414;-66
2021/01/28 04:54:07;;;;;;;77.97;40.87;;;;;;;;;;674059;207;921973;-65
2021/01/28 04:56:33;;;;;;;81.57;39.63;;;;;;;;;;673237;207;918551;-66
2021/01/28 04:59:00;;;;;;;71.87;39.57;;;;;;;;;;677569;207;918839;-66
2021/01/28 05:01:28;;;;;;;77.07;40.40;;;;;;;;;;671478;207;918577;-67
2021/01/28 05:03:54;;;;;;;73.10;39.40;;;;;;;;;;670025;208;919431;-66
2021/01/28 05:06:20;;;;;;;74.47;40.20;;;;;;;;;;670965;207;919525;-66
2021/01/28 05:08:46;;;;;;;75.93;39.60;;;;;;;;;;676532;207;919015;-66
2021/01/28 05:11:18;;;;;;;80.23;38.87;;;;;;;;;;666424;204;928144;-66
2021/01/28 05:13:43;;;;;;;80.10;41.00;;;;;;;;;;668033;208;919081;-67
2021/01/28 05:16:15;;;;;;;72.37;38.87;;;;;;;;;;674879;207;920007;-66
2021/01/28 05:18:41;;;;;;;75.13;40.83;;;;;;;;;;679438;207;938481;-66
2021/01/28 05:21:09;;;;;;;88.37;41.03;;;;;;;;;;671696;207;919050;-66
2021/01/28 05:23:35;;;;;;;85.87;43.67;;;;;;;;;;673861;207;919685;-65
2021/01/28 05:26:00;;;;;;;89.63;42.30;;;;;;;;;;676980;207;919333;-66
2021/01/28 05:28:27;;;;;;;77.67;38.80;;;;;;;;;;671473;207;927708;-66
2021/01/28 05:30:53;;;;;;;80.37;42.10;;;;;;;;;;669614;207;1342963;-66
2021/01/28 05:33:31;;;;;;;78.53;39.63;;;;;;;;;;677848;207;918664;-65
2021/01/28 05:36:02;;;;;;;77.17;42.43;;;;;;;;;;677332;207;918014;-68
2021/01/28 05:38:28;;;;;;;73.23;38.23;;;;;;;;;;672201;207;915223;-68
2021/01/28 05:40:55;;;;;;;86.07;44.03;;;;;;;;;;673545;207;915994;-67
2021/01/28 05:43:24;;;;;;;77.17;39.17;;;;;;;;;;672422;207;913350;-67
2021/01/28 05:45:50;;;;;;;81.70;41.17;;;;;;;;;;677597;207;918619;-68
2021/01/28 05:48:17;;;;;;;86.28;42.90;;;;;;;;;;670839;207;981924;-67
2021/01/28 05:50:43;;;;;;;69.33;40.40;;;;;;;;;;671885;207;1021791;-68
2021/01/28 05:53:09;;;;;;;83.60;41.80;;;;;;;;;;676047;207;914867;-68
2021/01/28 05:55:35;;;;;;;86.37;45.13;;;;;;;;;;674231;207;920442;-68
2021/01/28 05:58:04;;;;;;;70.93;37.10;;;;;;;;;;670869;207;914771;-67
2021/01/28 06:00:31;;;;;;;77.17;32.53;;;;;;;;;;673171;207;919281;-67
2021/01/28 06:03:08;;;;;;;60.67;29.37;;;;;;;;;;675466;207;917977;-68
2021/01/28 06:05:52;;;;;;;56.50;29.60;;;;;;;;;;677716;208;917535;-68
2021/01/28 06:08:25;;;;;;;64.47;30.23;;;;;;;;;;678525;207;943008;-66
2021/01/28 06:11:05;;;;;;;56.43;28.60;;;;;;;;;;672176;207;919520;-66
2021/01/28 06:13:47;;;;;;;56.03;29.70;;;;;;;;;;673936;205;918069;-67
2021/01/28 06:16:16;;;;;;;48.93;26.80;;;;;;;;;;680328;205;622487;-66
2021/01/28 06:18:40;;;;;;;58.60;27.67;;;;;;;;;;669714;207;1044398;-66
2021/01/28 06:21:09;;;;;;;47.03;26.53;;;;;;;;;;676371;207;1053929;-66
2021/01/28 06:23:35;;;;;;;52.23;25.00;;;;;;;;;;681504;207;617646;-66
2021/01/28 06:26:02;;;;;;;56.17;24.75;;;;;;;;;;675632;207;637742;-67
2021/01/28 06:28:34;;;;;;;48.27;26.13;;;;;;;;;;675379;207;633556;-66
2021/01/28 06:31:01;;;;;;;41.00;22.93;;;;;;;;;;682916;207;637400;-67
2021/01/28 06:33:29;;;;;;;46.23;24.50;;;;;;;;;;677571;207;627863;-66
2021/01/28 06:35:55;;;;;;;49.67;28.60;;;;;;;;;;675329;207;920257;-67
2021/01/28 06:38:39;;;;;;;53.93;23.23;;;;;;;;;;675344;207;876939;-68
2021/01/28 06:41:05;;;;;;;47.85;24.30;;;;;;;;;;673629;207;919283;-66
2021/01/28 06:43:47;;;;;;;40.13;22.30;;;;;;;;;;677829;207;918866;-69
2021/01/28 06:46:13;;;;;;;40.23;24.60;;;;;;;;;;671619;208;918825;-67
2021/01/28 06:48:43;;;;;;;36.67;21.15;;;;;;;;;;674095;207;919229;-66
2021/01/28 06:51:10;;;;;;;40.13;20.57;;;;;;;;;;673299;207;919192;-67
2021/01/28 06:53:40;;;;;;;39.28;22.65;;;;;;;;;;677256;207;919586;-66
2021/01/28 06:56:08;;;;;;;42.50;21.10;;;;;;;;;;675527;207;918805;-66
2021/01/28 06:58:48;;;;;;;40.63;22.87;;;;;;;;;;673359;207;918795;-67
2021/01/28 07:01:14;;;;;;;41.23;20.37;;;;;;;;;;665094;207;2183896;-66
2021/01/28 07:03:56;;;;;;;39.40;18.93;;;;;;;;;;673310;207;919615;-66
2021/01/28 07:06:22;;;;;;;50.03;21.43;;;;;;;;;;671064;207;918925;-67
2021/01/28 07:08:52;;;;;;;43.20;21.80;;;;;;;;;;677133;207;920172;-66
2021/01/28 07:11:38;;;;;;;46.67;23.30;;;;;;;;;;672100;207;919498;-67
2021/01/28 07:14:04;;;;;;;38.90;18.13;;;;;;;;;;674926;207;918697;-67
2021/01/28 07:16:32;;;;;;;39.60;18.15;;;;;;;;;;671208;207;919465;-67
2021/01/28 07:19:00;;;;;;;33.30;18.40;;;;;;;;;;672223;207;919316;-66
2021/01/28 07:21:27;;;;;;;38.03;18.37;;;;;;;;;;675623;207;918961;-68
2021/01/28 07:23:58;;;;;;;36.00;18.03;;;;;;;;;;674167;207;918919;-66
2021/01/28 07:26:24;;;;;;;33.07;16.90;;;;;;;;;;670759;207;948127;-67
2021/01/28 07:28:50;;;;;;;35.22;19.15;;;;;;;;;;671294;207;919727;-67
2021/01/28 07:31:16;;;;;;;30.27;16.67;;;;;;;;;;675525;207;918709;-67
2021/01/28 07:33:42;;;;;;;37.13;21.73;;;;;;;;;;672566;207;919059;-68
2021/01/28 07:36:27;;;;;;;35.80;20.90;;;;;;;;;;670521;207;919060;-67
2021/01/28 07:38:53;;;;;;;31.08;17.20;;;;;;;;;;671342;207;919131;-68
2021/01/28 07:41:19;;;;;;;32.60;16.57;;;;;;;;;;677800;206;919153;-68
2021/01/28 07:43:45;;;;;;;33.77;18.20;;;;;;;;;;675293;207;920076;-68
2021/01/28 07:46:11;;;;;;;31.80;16.53;;;;;;;;;;670649;207;976971;-67
2021/01/28 07:48:37;;;;;;;42.23;21.53;;;;;;;;;;667014;210;918312;-68
2021/01/28 07:51:09;;;;;;;33.87;18.47;;;;;;;;;;659620;207;1011264;-67
2021/01/28 07:53:36;;;;;;;31.90;15.67;;;;;;;;;;662600;210;1023337;-68
2021/01/28 07:56:01;;;;;;;32.93;16.00;;;;;;;;;;662930;210;919237;-68
2021/01/28 07:58:27;;;;;;;15.97;11.00;;;;;;;;;;666500;207;930804;-68
2021/01/28 08:00:53;;;;;;;31.43;16.03;;;;;;;;;;663410;211;918419;-67
2021/01/28 08:03:34;;;;;;;30.20;16.27;;;;;;;;;;659937;209;919819;-68
2021/01/28 08:05:59;;;;;;;25.20;16.30;;;;;;;;;;663069;211;920060;-67
2021/01/28 08:08:25;;;;;;;31.03;17.77;;;;;;;;;;665687;207;919207;-68
2021/01/28 08:10:51;;;;;;;32.42;18.52;;;;;;;;;;664295;211;919539;-68
2021/01/28 08:13:21;;;;;;;30.53;16.20;;;;;;;;;;662045;205;918995;-68
2021/01/28 08:15:47;;;;;;;32.30;17.65;;;;;;;;;;662811;211;971001;-67
2021/01/28 08:18:12;;;;;;;29.03;16.93;;;;;;;;;;665578;208;918802;-68
2021/01/28 08:20:38;;;;;;;29.80;14.63;;;;;;;;;;662209;210;918764;-68
2021/01/28 08:23:04;;;;;;;31.77;14.87;;;;;;;;;;660236;209;919382;-68
2021/01/28 08:25:31;;;;;;;24.77;15.20;;;;;;;;;;665584;211;951942;-68
2021/01/28 08:27:57;;;;;;;26.90;13.80;;;;;;;;;;661653;210;918835;-68
2021/01/28 08:30:23;;;;;;;24.07;13.33;;;;;;;;;;661038;211;919078;-68
2021/01/28 08:32:49;;;;;;;24.02;13.95;;;;;;;;;;662019;211;919056;-67
2021/01/28 08:35:15;;;;;;;19.57;14.20;;;;;;;;;;667368;211;921379;-69
2021/01/28 08:37:40;;;;;;;34.17;16.93;;;;;;;;;;662304;211;919349;-68
2021/01/28 08:40:07;;;;;;;26.03;14.20;;;;;;;;;;661565;208;918374;-68
2021/01/28 08:42:33;;;;;;;28.40;16.27;;;;;;;;;;667015;211;918690;-69
2021/01/28 08:45:03;;;;;;;21.63;15.40;;;;;;;;;;661007;208;918809;-70
2021/01/28 08:47:29;;;;;;;33.50;14.50;;;;;;;;;;662508;211;920697;-71
2021/01/28 08:49:58;;;;;;;27.90;13.63;;;;;;;;;;664330;211;917724;-70
2021/01/28 08:52:24;;;;;;;29.10;14.90;;;;;;;;;;668346;208;917898;-71
2021/01/28 08:54:50;;;;;;;21.90;13.70;;;;;;;;;;661114;210;1304732;-72
2021/01/28 08:57:16;;;;;;;20.87;12.90;;;;;;;;;;663790;210;920016;-71
2021/01/28 08:59:44;;;;;;;22.30;11.97;;;;;;;;;;667036;210;916192;-71
2021/01/28 09:02:11;;;;;;;28.50;15.67;;;;;;;;;;664799;210;936896;-71
2021/01/28 09:04:37;;;;;;;27.80;16.37;;;;;;;;;;662080;210;918135;-71
2021/01/28 09:07:03;;;;;;;21.77;12.90;;;;;;;;;;666315;210;920123;-71
2021/01/28 09:09:29;;;;;;;24.53;16.00;;;;;;;;;;663050;210;920045;-72
2021/01/28 09:11:54;;;;;;;27.87;16.50;;;;;;;;;;663861;211;1009382;-72
2021/01/28 09:14:29;;;;;;;26.10;15.97;;;;;;;;;;660516;208;918737;-73
2021/01/28 09:16:55;;;;;;;21.10;14.63;;;;;;;;;;670625;211;914180;-71
2021/01/28 09:19:21;;;;;;;28.63;17.40;;;;;;;;;;663208;211;913709;-70
2021/01/28 09:21:47;;;;;;;27.57;14.50;;;;;;;;;;661216;207;918999;-71
2021/01/28 09:24:17;;;;;;;34.15;18.52;;;;;;;;;;664394;211;918653;-70
2021/01/28 09:26:43;;;;;;;28.80;18.30;;;;;;;;;;666131;208;919361;-70
2021/01/28 09:29:16;;;;;;;25.57;16.23;;;;;;;;;;662967;211;941073;-69
2021/01/28 09:31:42;;;;;;;25.80;15.97;;;;;;;;;;660936;211;918757;-69
2021/01/28 09:34:25;;;;;;;28.20;15.90;;;;;;;;;;666080;210;919409;-68
2021/01/28 09:36:52;;;;;;;22.87;14.33;;;;;;;;;;660525;208;1144185;-68
2021/01/28 09:39:20;;;;;;;26.10;16.27;;;;;;;;;;667818;211;919045;-70
2021/01/28 09:41:46;;;;;;;30.20;15.83;;;;;;;;;;660220;211;919524;-69
2021/01/28 09:44:18;;;;;;;27.83;17.87;;;;;;;;;;661630;211;924140;-68
2021/01/28 09:46:43;;;;;;;22.10;13.37;;;;;;;;;;665746;211;919286;-68
2021/01/28 09:49:09;;;;;;;25.67;14.80;;;;;;;;;;662905;211;922069;-67
2021/01/28 09:51:35;;;;;;;23.57;15.80;;;;;;;;;;659704;211;920670;-66
2021/01/28 09:54:01;;;;;;;22.75;14.38;;;;;;;;;;661967;211;918928;-66
2021/01/28 09:56:27;;;;;;;18.17;13.07;;;;;;;;;;665870;211;922113;-68
2021/01/28 09:58:53;;;;;;;23.37;14.60;;;;;;;;;;663902;211;917361;-69
2021/01/28 10:01:18;;;;;;;21.20;12.70;;;;;;;;;;660669;207;918642;-69
2021/01/28 10:03:44;;;;;;;20.93;12.97;;;;;;;;;;668000;208;918624;-68
2021/01/28 10:06:10;;;;;;;19.47;13.10;;;;;;;;;;663656;210;1123357;-71
2021/01/28 10:08:36;;;;;;;17.57;9.10;;;;;;;;;;661656;207;919269;-71
2021/01/28 10:11:02;;;;;;;31.37;13.53;;;;;;;;;;668318;210;918595;-72
2021/01/28 10:13:28;;;;;;;25.33;14.67;;;;;;;;;;661914;207;918136;-72
2021/01/28 10:15:54;;;;;;;25.70;15.80;;;;;;;;;;663340;210;920169;-73
2021/01/28 10:18:20;;;;;;;26.90;17.13;;;;;;;;;;661642;210;918556;-73
2021/01/28 10:21:11;;;;;;;27.00;17.83;;;;;;;;;;664922;210;918887;-75
2021/01/28 10:23:36;;;;;;;24.47;15.67;;;;;;;;;;668530;210;1018154;-77
2021/01/28 10:26:03;;;;;;;30.50;18.20;;;;;;;;;;662195;211;922217;-76
2021/01/28 10:28:29;;;;;;;22.10;13.77;;;;;;;;;;663770;211;925157;-77
2021/01/28 10:30:55;;;;;;;24.33;14.33;;;;;;;;;;667574;211;918551;-77
2021/01/28 10:33:20;;;;;;;25.63;16.90;;;;;;;;;;661654;210;918795;-76
2021/01/28 10:35:46;;;;;;;24.83;16.08;;;;;;;;;;660866;210;919282;-75
2021/01/28 10:38:12;;;;;;;25.30;14.00;;;;;;;;;;662693;211;919182;-76
2021/01/28 10:40:38;;;;;;;29.10;18.10;;;;;;;;;;668708;211;918832;-75
2021/01/28 10:43:04;;;;;;;25.17;16.63;;;;;;;;;;663705;203;858588;-76
2021/01/28 10:45:31;;;;;;;26.33;17.20;;;;;;;;;;663157;211;879032;-76
2021/01/28 10:47:58;;;;;;;24.63;15.70;;;;;;;;;;665730;211;917917;-75
2021/01/28 10:50:25;;;;;;;26.93;15.50;;;;;;;;;;662383;211;1021534;-76
2021/01/28 10:52:50;;;;;;;27.50;17.17;;;;;;;;;;663642;210;918234;-78
2021/01/28 10:55:16;;;;;;;28.53;18.47;;;;;;;;;;665613;210;918826;-79
2021/01/28 10:57:42;;;;;;;26.87;15.77;;;;;;;;;;662355;210;917343;-78
2021/01/28 11:00:08;;;;;;;29.80;16.57;;;;;;;;;;660128;210;919908;-79
2021/01/28 11:02:34;;;;;;;23.90;15.80;;;;;;;;;;662628;210;918900;-78
2021/01/28 11:05:00;;;;;;;25.20;15.17;;;;;;;;;;667541;209;715515;-79
2021/01/28 11:07:26;;;;;;;28.70;18.57;;;;;;;;;;663665;210;815506;-79
2021/01/28 11:09:51;;;;;;;27.30;16.30;;;;;;;;;;662597;208;816833;-79
2021/01/28 11:12:17;;;;;;;29.37;15.40;;;;;;;;;;669162;211;815905;-78
2021/01/28 11:14:43;;;;;;;27.87;18.77;;;;;;;;;;664173;207;929124;-80
2021/01/28 11:17:09;;;;;;;22.98;15.05;;;;;;;;;;666027;210;918301;-80
2021/01/28 11:19:35;;;;;;;24.90;16.63;;;;;;;;;;666366;207;918202;-81
2021/01/28 11:22:01;;;;;;;32.93;17.07;;;;;;;;;;665464;210;822468;-80
2021/01/28 11:24:28;;;;;;;25.17;15.80;;;;;;;;;;660974;210;1021548;-78
2021/01/28 11:26:52;;;;;;;24.17;15.43;;;;;;;;;;664406;210;918044;-77
2021/01/28 11:29:22;;;;;;;25.20;15.50;;;;;;;;;;669891;210;916242;-78
2021/01/28 11:34:37;;;;;;;24.53;13.17;;;;;;;;;;661841;211;1021517;-76
2021/01/28 11:37:03;;;;;;;26.13;15.90;;;;;;;;;;663431;207;919299;-76
2021/01/28 11:39:29;;;;;;;28.73;14.30;;;;;;;;;;667073;211;871574;-77
2021/01/28 11:41:55;;;;;;;23.63;13.53;;;;;;;;;;661880;207;918727;-77
2021/01/28 11:44:20;;;;;;;20.63;12.23;;;;;;;;;;664142;211;1020709;-78
2021/01/28 11:46:46;;;;;;;26.30;14.90;;;;;;;;;;662308;211;917630;-76
2021/01/28 11:49:12;;;;;;;20.83;14.00;;;;;;;;;;667803;211;918678;-77
2021/01/28 11:51:38;;;;;;;25.43;13.37;;;;;;;;;;656310;210;1694696;-76
2021/01/28 11:54:04;;;;;;;23.57;13.83;;;;;;;;;;664041;211;824086;-77
2021/01/28 11:56:30;;;;;;;22.13;11.43;;;;;;;;;;665370;211;913904;-74
2021/01/28 11:58:56;;;;;;;22.77;14.47;;;;;;;;;;663187;211;918785;-77
2021/01/28 12:01:22;;;;;;;22.30;13.83;;;;;;;;;;660894;211;919435;-75
2021/01/28 12:03:47;;;;;;;19.13;13.93;;;;;;;;;;667686;211;917950;-75
2021/01/28 12:06:14;;;;;;;24.30;15.20;;;;;;;;;;662615;211;919231;-74
2021/01/28 12:08:39;;;;;;;22.90;14.20;;;;;;;;;;663419;211;918802;-74
2021/01/28 12:11:05;;;;;;;19.40;11.73;;;;;;;;;;658094;211;2194099;-74
2021/01/28 12:13:31;;;;;;;25.08;13.68;;;;;;;;;;660074;211;915918;-75
2021/01/28 12:15:57;;;;;;;24.33;14.00;;;;;;;;;;661351;211;915264;-74
2021/01/28 12:18:23;;;;;;;22.02;13.73;;;;;;;;;;658611;208;919335;-73
2021/01/28 12:20:49;;;;;;;23.13;14.23;;;;;;;;;;666813;211;916937;-75
2021/01/28 12:23:15;;;;;;;21.77;12.50;;;;;;;;;;660290;208;919734;-74
2021/01/28 12:25:41;;;;;;;25.73;15.10;;;;;;;;;;660526;211;919288;-74
2021/01/28 12:28:07;;;;;;;26.20;16.67;;;;;;;;;;667831;207;912779;-75
2021/01/28 12:30:33;;;;;;;24.97;14.70;;;;;;;;;;665355;210;918230;-76
2021/01/28 12:32:59;;;;;;;28.97;17.50;;;;;;;;;;662737;210;1018240;-74
2021/01/28 12:35:24;;;;;;;21.73;14.40;;;;;;;;;;667251;210;917210;-75
2021/01/28 12:37:51;;;;;;;25.87;15.70;;;;;;;;;;660787;208;999868;-74
2021/01/28 12:40:17;;;;;;;29.60;18.30;;;;;;;;;;662635;210;1016268;-74
2021/01/28 12:42:43;;;;;;;29.03;17.63;;;;;;;;;;660293;207;979565;-73
2021/01/28 12:45:09;;;;;;;24.47;16.23;;;;;;;;;;667479;210;928450;-72
2021/01/28 12:47:35;;;;;;;26.77;16.80;;;;;;;;;;660955;207;919799;-74
2021/01/28 12:50:01;;;;;;;28.23;16.37;;;;;;;;;;662668;211;914745;-73
2021/01/28 12:52:26;;;;;;;30.37;18.80;;;;;;;;;;667699;211;913029;-73
2021/01/28 12:54:52;;;;;;;28.93;16.30;;;;;;;;;;663014;209;914727;-74
2021/01/28 12:57:18;;;;;;;33.67;19.60;;;;;;;;;;663885;211;920040;-75
2021/01/28 12:59:45;;;;;;;29.47;19.40;;;;;;;;;;663837;211;1263079;-74
2021/01/28 13:02:10;;;;;;;23.70;15.30;;;;;;;;;;663882;211;914500;-72
2021/01/28 13:04:36;;;;;;;26.30;16.33;;;;;;;;;;661079;211;919185;-74
2021/01/28 13:07:01;;;;;;;27.40;16.30;;;;;;;;;;662825;211;921216;-74
2021/01/28 13:09:27;;;;;;;22.50;14.63;;;;;;;;;;664715;211;918609;-74
2021/01/28 13:11:53;;;;;;;28.30;17.13;;;;;;;;;;660707;211;918957;-73
2021/01/28 13:14:19;;;;;;;30.53;18.30;;;;;;;;;;661477;209;919199;-75
2021/01/28 13:16:45;;;;;;;32.00;19.60;;;;;;;;;;667933;211;917587;-74
2021/01/28 13:19:11;;;;;;;31.10;18.73;;;;;;;;;;658960;208;1186170;-74
2021/01/28 13:21:37;;;;;;;27.90;15.70;;;;;;;;;;657316;211;918970;-74
2021/01/28 13:24:03;;;;;;;29.60;18.55;;;;;;;;;;664475;209;917928;-74
2021/01/28 13:26:29;;;;;;;31.93;20.10;;;;;;;;;;661039;211;919079;-74
2021/01/28 13:28:55;;;;;;;30.90;16.47;;;;;;;;;;660801;211;918616;-73
2021/01/28 13:31:20;;;;;;;33.93;20.03;;;;;;;;;;660926;208;919345;-71
2021/01/28 13:33:46;;;;;;;28.73;17.57;;;;;;;;;;667064;211;918691;-74
2021/01/28 13:36:12;;;;;;;26.03;16.47;;;;;;;;;;661385;211;917788;-74
2021/01/28 13:38:38;;;;;;;34.83;18.90;;;;;;;;;;663823;209;918738;-74
2021/01/28 13:41:04;;;;;;;28.90;17.30;;;;;;;;;;667050;210;919539;-73
2021/01/28 13:43:30;;;;;;;30.97;18.50;;;;;;;;;;665035;210;919211;-73
2021/01/28 13:45:56;;;;;;;29.23;18.47;;;;;;;;;;662740;207;918822;-74
2021/01/28 13:48:21;;;;;;;27.63;17.83;;;;;;;;;;667521;210;1020555;-74
2021/01/28 13:50:47;;;;;;;29.03;17.77;;;;;;;;;;660822;207;918928;-72
2021/01/28 13:53:13;;;;;;;24.33;15.97;;;;;;;;;;662943;208;919956;-73
2021/01/28 13:55:39;;;;;;;32.30;18.90;;;;;;;;;;664660;207;918583;-73
2021/01/28 13:58:05;;;;;;;31.57;19.17;;;;;;;;;;661701;211;919147;-73
2021/01/28 14:00:31;;;;;;;32.70;19.40;;;;;;;;;;659869;210;922033;-73
2021/01/28 14:02:57;;;;;;;31.93;18.80;;;;;;;;;;663534;210;919035;-73
2021/01/28 14:05:22;;;;;;;30.97;17.27;;;;;;;;;;667266;210;1020948;-73